Time;durP1;ratioP1;P1;durP2;ratioP2;P2;SDS_P1;SDS_P2;PMS_P1;PMS_P2;Temp;Humidity;BMP_temperature;BMP_pressure;BME280_temperature;BME280_humidity;BME280_pressure;Samples;Min_cycle;Max_cycle;Signal;HPM_P1;HPM_P2
2021/08/06 00:01:56;;;;;;;3.58;3.22;;;;;;;;;;5075701;28;38220;-80
2021/08/06 00:04:22;;;;;;;4.28;3.63;;;;;;;;;;5095498;28;37223;-78
2021/08/06 00:06:48;;;;;;;5.10;3.50;;;;;;;;;;5085790;28;38513;-81
2021/08/06 00:09:15;;;;;;;4.85;3.17;;;;;;;;;;5100817;28;37743;-78
2021/08/06 00:11:41;;;;;;;5.90;4.10;;;;;;;;;;5099938;28;40100;-78
2021/08/06 00:14:07;;;;;;;4.25;3.47;;;;;;;;;;5086637;28;39017;-80
2021/08/06 00:16:34;;;;;;;3.63;3.28;;;;;;;;;;5102186;28;36848;-79
2021/08/06 00:19:00;;;;;;;7.43;4.50;;;;;;;;;;5087976;28;40338;-78
2021/08/06 00:21:27;;;;;;;5.88;3.80;;;;;;;;;;5100782;28;37931;-79
2021/08/06 00:23:53;;;;;;;5.88;3.80;;;;;;;;;;5083262;28;39249;-79
2021/08/06 00:26:19;;;;;;;6.30;3.35;;;;;;;;;;5087277;28;38126;-79
2021/08/06 00:28:46;;;;;;;5.03;3.78;;;;;;;;;;5102911;28;38695;-79
2021/08/06 00:31:12;;;;;;;5.05;3.75;;;;;;;;;;5102629;28;39529;-79
2021/08/06 00:33:39;;;;;;;5.13;4.13;;;;;;;;;;5103736;28;37066;-79
2021/08/06 00:36:05;;;;;;;3.85;3.50;;;;;;;;;;5082026;28;37110;-78
2021/08/06 00:38:31;;;;;;;4.13;3.72;;;;;;;;;;5096060;28;39113;-78
2021/08/06 00:41:12;;;;;;;5.15;3.95;;;;;;;;;;5086111;28;38891;-80
2021/08/06 00:43:41;;;;;;;5.60;4.20;;;;;;;;;;5113541;27;48507;-80
2021/08/06 00:46:07;;;;;;;5.50;3.95;;;;;;;;;;5113045;28;36863;-81
2021/08/06 00:56:19;;;;;;;5.13;4.20;;;;;;;;;;5216032;22;20059;-81
2021/08/06 00:58:46;;;;;;;6.07;4.45;;;;;;;;;;5060690;28;40618;-81
2021/08/06 01:01:12;;;;;;;5.13;4.40;;;;;;;;;;5120166;22;39893;-81
2021/08/06 01:03:48;;;;;;;4.57;3.97;;;;;;;;;;5077767;28;37936;-81
2021/08/06 01:06:17;;;;;;;6.05;4.00;;;;;;;;;;5073855;28;35550;-81
2021/08/06 01:08:54;;;;;;;5.60;4.30;;;;;;;;;;5083597;28;41381;-81
2021/08/06 01:11:22;;;;;;;5.03;4.47;;;;;;;;;;5110405;28;38302;-81
2021/08/06 01:13:53;;;;;;;5.60;4.00;;;;;;;;;;5112324;28;38315;-81
2021/08/06 01:16:19;;;;;;;4.25;3.80;;;;;;;;;;5093498;28;36996;-81
2021/08/06 01:18:59;;;;;;;4.10;3.70;;;;;;;;;;5083784;28;40261;-81
2021/08/06 01:21:27;;;;;;;5.65;3.85;;;;;;;;;;5071547;28;38204;-81
2021/08/06 01:23:57;;;;;;;4.28;3.78;;;;;;;;;;5075947;28;38624;-81
2021/08/06 01:26:24;;;;;;;4.55;3.80;;;;;;;;;;5074123;28;38429;-81
2021/08/06 01:28:51;;;;;;;3.72;3.10;;;;;;;;;;5071066;28;38963;-81
2021/08/06 01:31:23;;;;;;;5.90;3.53;;;;;;;;;;5074077;28;39078;-80
2021/08/06 01:33:49;;;;;;;3.47;2.95;;;;;;;;;;5074173;28;38662;-81
2021/08/06 01:36:16;;;;;;;5.68;3.50;;;;;;;;;;5070673;28;37168;-81
2021/08/06 01:38:42;;;;;;;4.10;3.60;;;;;;;;;;5071639;28;38599;-81
2021/08/06 01:41:15;;;;;;;3.75;3.25;;;;;;;;;;5069815;28;38559;-80
2021/08/06 01:43:47;;;;;;;5.22;3.38;;;;;;;;;;5085400;28;39263;-81
2021/08/06 01:46:26;;;;;;;5.50;3.22;;;;;;;;;;5089866;28;39063;-81
2021/08/06 01:48:53;;;;;;;4.03;3.15;;;;;;;;;;5071621;28;40800;-81
2021/08/06 01:51:22;;;;;;;4.88;3.30;;;;;;;;;;5066658;28;38670;-81
2021/08/06 01:53:49;;;;;;;4.60;3.00;;;;;;;;;;5072414;28;39245;-81
2021/08/06 01:56:18;;;;;;;6.90;2.80;;;;;;;;;;5069283;28;36799;-81
2021/08/06 01:58:53;;;;;;;5.78;2.90;;;;;;;;;;5074808;28;39303;-81
2021/08/06 02:01:19;;;;;;;3.88;2.35;;;;;;;;;;5085240;28;37877;-81
2021/08/06 02:03:46;;;;;;;3.25;2.00;;;;;;;;;;5066313;28;38134;-81
2021/08/06 02:06:16;;;;;;;7.63;1.80;;;;;;;;;;5068591;28;37380;-81
2021/08/06 02:08:42;;;;;;;3.65;2.20;;;;;;;;;;5072023;28;37914;-81
2021/08/06 02:11:08;;;;;;;3.92;2.22;;;;;;;;;;5074938;28;39636;-81
2021/08/06 02:13:36;;;;;;;2.42;2.22;;;;;;;;;;5602111;22;39110;-81
2021/08/06 02:18:55;;;;;;;4.20;1.92;;;;;;;;;;5550491;22;19908;-82
2021/08/06 02:21:26;;;;;;;4.97;2.50;;;;;;;;;;5097945;28;39063;-82
2021/08/06 02:23:55;;;;;;;3.33;2.55;;;;;;;;;;5115910;28;39696;-82
2021/08/06 02:26:22;;;;;;;3.60;2.88;;;;;;;;;;5096292;28;36972;-81
2021/08/06 02:28:57;;;;;;;7.60;2.90;;;;;;;;;;5114830;28;40092;-82
2021/08/06 02:31:28;;;;;;;3.72;2.53;;;;;;;;;;5095258;28;38506;-81
2021/08/06 02:33:54;;;;;;;4.07;2.70;;;;;;;;;;5175342;22;37894;-82
2021/08/06 02:36:22;;;;;;;3.20;2.30;;;;;;;;;;5093330;28;37183;-82
2021/08/06 02:38:55;;;;;;;3.03;2.70;;;;;;;;;;5074834;28;37815;-82
2021/08/06 02:41:23;;;;;;;7.68;2.58;;;;;;;;;;5074894;28;38313;-82
2021/08/06 02:43:49;;;;;;;4.32;2.63;;;;;;;;;;5090313;28;38408;-81
2021/08/06 02:46:16;;;;;;;3.08;2.30;;;;;;;;;;5087548;28;36514;-80
2021/08/06 02:48:42;;;;;;;3.08;2.25;;;;;;;;;;5086844;28;39014;-79
2021/08/06 02:51:09;;;;;;;3.55;2.80;;;;;;;;;;5085415;28;39580;-80
2021/08/06 02:53:35;;;;;;;3.78;2.90;;;;;;;;;;5084408;28;39273;-80
2021/08/06 02:56:02;;;;;;;3.75;2.90;;;;;;;;;;5084911;28;37195;-79
2021/08/06 02:58:28;;;;;;;5.65;2.67;;;;;;;;;;5087190;28;49023;-79
2021/08/06 03:00:54;;;;;;;5.13;2.65;;;;;;;;;;5067979;28;39743;-79
2021/08/06 03:03:21;;;;;;;2.72;2.47;;;;;;;;;;5086672;28;38769;-79
2021/08/06 03:05:47;;;;;;;5.03;2.85;;;;;;;;;;5087634;28;36804;-81
2021/08/06 03:08:13;;;;;;;5.82;3.53;;;;;;;;;;5056943;28;37343;-79
2021/08/06 03:10:40;;;;;;;4.57;3.53;;;;;;;;;;5067375;28;39999;-79
2021/08/06 03:13:06;;;;;;;3.85;3.42;;;;;;;;;;5067984;28;37284;-79
2021/08/06 03:15:33;;;;;;;5.10;3.83;;;;;;;;;;5064198;28;38228;-79
2021/08/06 03:17:59;;;;;;;3.70;3.40;;;;;;;;;;5064902;28;37831;-79
2021/08/06 03:20:25;;;;;;;5.50;3.83;;;;;;;;;;5065175;28;37184;-79
2021/08/06 03:22:52;;;;;;;4.95;4.00;;;;;;;;;;5087849;28;38531;-79
2021/08/06 03:25:19;;;;;;;5.75;3.95;;;;;;;;;;5088917;28;37362;-82
2021/08/06 03:27:45;;;;;;;6.07;4.57;;;;;;;;;;5084627;28;39724;-80
2021/08/06 03:30:13;;;;;;;4.97;3.83;;;;;;;;;;5082693;28;39323;-79
2021/08/06 03:32:39;;;;;;;4.50;4.10;;;;;;;;;;5086944;28;38314;-80
2021/08/06 03:35:06;;;;;;;7.28;5.03;;;;;;;;;;5084219;28;36962;-77
2021/08/06 03:37:32;;;;;;;5.25;4.70;;;;;;;;;;5085389;28;38885;-80
2021/08/06 03:39:59;;;;;;;6.93;5.00;;;;;;;;;;5085307;28;38988;-80
2021/08/06 03:42:25;;;;;;;7.95;4.50;;;;;;;;;;5083018;28;39014;-80
2021/08/06 03:44:52;;;;;;;7.03;5.40;;;;;;;;;;5066706;28;35561;-80
2021/08/06 03:47:18;;;;;;;6.72;4.82;;;;;;;;;;5087847;27;39969;-80
2021/08/06 03:49:45;;;;;;;6.63;4.88;;;;;;;;;;5090107;28;38533;-80
2021/08/06 03:52:11;;;;;;;6.25;4.18;;;;;;;;;;5085218;28;38196;-79
2021/08/06 03:54:38;;;;;;;6.95;4.45;;;;;;;;;;5069844;28;36585;-80
2021/08/06 03:57:05;;;;;;;7.18;4.63;;;;;;;;;;5068187;28;38932;-79
2021/08/06 03:59:31;;;;;;;7.90;4.07;;;;;;;;;;5085591;28;39965;-80
2021/08/06 04:01:58;;;;;;;5.18;4.57;;;;;;;;;;5067980;28;39138;-80
2021/08/06 04:04:24;;;;;;;6.20;5.10;;;;;;;;;;5068521;28;35855;-80
2021/08/06 04:06:51;;;;;;;7.55;4.63;;;;;;;;;;5071545;28;39949;-80
2021/08/06 04:09:17;;;;;;;5.90;4.63;;;;;;;;;;5071610;28;37485;-80
2021/08/06 04:11:44;;;;;;;6.88;4.72;;;;;;;;;;5073765;28;38054;-79
2021/08/06 04:14:10;;;;;;;11.02;5.13;;;;;;;;;;5088372;28;38673;-79
2021/08/06 04:16:37;;;;;;;8.10;4.90;;;;;;;;;;5068376;28;37573;-80
2021/08/06 04:19:03;;;;;;;7.45;4.90;;;;;;;;;;5071650;28;38257;-75
2021/08/06 04:21:30;;;;;;;7.32;5.10;;;;;;;;;;5092924;28;38633;-80
2021/08/06 04:23:56;;;;;;;9.68;4.90;;;;;;;;;;5093825;28;37416;-80
2021/08/06 04:26:23;;;;;;;7.82;4.78;;;;;;;;;;5093227;28;39637;-80
2021/08/06 04:28:49;;;;;;;9.48;5.82;;;;;;;;;;5092160;28;37475;-80
2021/08/06 04:31:15;;;;;;;6.10;5.40;;;;;;;;;;5088029;28;37198;-80
2021/08/06 04:33:42;;;;;;;9.95;5.22;;;;;;;;;;5088436;28;38440;-79
2021/08/06 04:36:08;;;;;;;7.93;4.95;;;;;;;;;;5071152;28;37633;-80
2021/08/06 04:38:35;;;;;;;9.93;4.95;;;;;;;;;;5071031;28;37640;-80
2021/08/06 04:41:01;;;;;;;7.55;4.72;;;;;;;;;;5089863;28;39884;-79
2021/08/06 04:43:27;;;;;;;6.78;4.80;;;;;;;;;;5085639;28;47043;-80
2021/08/06 04:45:55;;;;;;;9.55;4.97;;;;;;;;;;5072331;28;39557;-82
2021/08/06 04:48:22;;;;;;;6.30;4.57;;;;;;;;;;5071696;28;37449;-80
2021/08/06 04:50:48;;;;;;;7.63;4.63;;;;;;;;;;5069447;28;38982;-80
2021/08/06 04:53:15;;;;;;;6.88;4.80;;;;;;;;;;5090949;28;37358;-80
2021/08/06 04:55:42;;;;;;;7.85;4.07;;;;;;;;;;5086579;28;38486;-79
2021/08/06 04:58:08;;;;;;;7.15;4.55;;;;;;;;;;5089173;28;38890;-79
2021/08/06 05:00:35;;;;;;;7.80;4.78;;;;;;;;;;5086570;28;38776;-80
2021/08/06 05:03:01;;;;;;;8.32;4.35;;;;;;;;;;5087326;28;37464;-80
2021/08/06 05:05:34;;;;;;;6.50;3.78;;;;;;;;;;5086255;28;48963;-80
2021/08/06 05:08:00;;;;;;;;;;;;;;;;;;5084994;28;39005;-80
2021/08/06 05:10:26;;;;;;;6.75;4.43;;;;;;;;;;5085609;28;38374;-80
2021/08/06 05:12:53;;;;;;;5.60;3.72;;;;;;;;;;5085796;28;37833;-79
2021/08/06 05:15:19;;;;;;;7.32;4.07;;;;;;;;;;5065130;28;39625;-80
2021/08/06 05:17:47;;;;;;;6.18;3.90;;;;;;;;;;5084387;28;39394;-80
2021/08/06 05:20:13;;;;;;;7.25;3.60;;;;;;;;;;5083040;28;39308;-80
2021/08/06 05:22:41;;;;;;;8.35;4.50;;;;;;;;;;5064446;28;36988;-79
2021/08/06 05:25:10;;;;;;;9.02;3.60;;;;;;;;;;5081609;28;39429;-80
2021/08/06 05:27:38;;;;;;;7.15;3.70;;;;;;;;;;5064580;28;36726;-79
2021/08/06 05:30:04;;;;;;;6.40;3.10;;;;;;;;;;5083317;28;38024;-78
2021/08/06 05:32:31;;;;;;;5.30;3.10;;;;;;;;;;5082316;28;36846;-79
2021/08/06 05:34:57;;;;;;;7.72;3.28;;;;;;;;;;5053613;28;37766;-79
2021/08/06 05:37:23;;;;;;;5.43;2.97;;;;;;;;;;5071880;28;38960;-79
2021/08/06 05:39:50;;;;;;;7.72;3.85;;;;;;;;;;5072931;28;38445;-79
2021/08/06 05:42:16;;;;;;;4.80;2.60;;;;;;;;;;5034709;28;37228;-79
2021/08/06 05:44:42;;;;;;;6.97;2.85;;;;;;;;;;5053793;28;39195;-79
2021/08/06 05:47:09;;;;;;;4.28;3.15;;;;;;;;;;5069578;28;37136;-79
2021/08/06 05:49:35;;;;;;;8.27;3.28;;;;;;;;;;5070886;28;38940;-79
2021/08/06 05:52:02;;;;;;;4.07;3.03;;;;;;;;;;5072549;28;37914;-78
2021/08/06 05:54:28;;;;;;;5.03;2.50;;;;;;;;;;5055029;28;39236;-79
2021/08/06 05:56:54;;;;;;;5.88;2.75;;;;;;;;;;5055385;28;39656;-79
2021/08/06 05:59:21;;;;;;;6.07;3.08;;;;;;;;;;5054691;28;38490;-79
2021/08/06 06:01:47;;;;;;;4.88;2.78;;;;;;;;;;5072146;28;36940;-78
2021/08/06 06:04:13;;;;;;;3.33;2.50;;;;;;;;;;5072837;28;38781;-79
2021/08/06 06:06:40;;;;;;;7.32;2.83;;;;;;;;;;5072827;28;38630;-79
2021/08/06 06:09:06;;;;;;;4.38;2.80;;;;;;;;;;5052776;28;36768;-79
2021/08/06 06:11:32;;;;;;;5.32;2.65;;;;;;;;;;5076351;28;37697;-79
2021/08/06 06:14:00;;;;;;;5.35;2.65;;;;;;;;;;5065362;28;39693;-79
2021/08/06 06:16:27;;;;;;;7.72;2.90;;;;;;;;;;5061680;28;47121;-79
2021/08/06 06:18:54;;;;;;;6.40;3.08;;;;;;;;;;5065913;28;37993;-80
2021/08/06 06:21:20;;;;;;;5.95;2.92;;;;;;;;;;5052677;28;38834;-81
2021/08/06 06:23:47;;;;;;;5.28;2.88;;;;;;;;;;5054840;28;39291;-79
2021/08/06 06:26:13;;;;;;;4.53;2.60;;;;;;;;;;5052294;28;39135;-78
2021/08/06 06:28:40;;;;;;;5.60;2.70;;;;;;;;;;5057038;28;38305;-79
2021/08/06 06:31:06;;;;;;;10.52;3.55;;;;;;;;;;5074201;28;37989;-78
2021/08/06 06:33:33;;;;;;;8.73;3.08;;;;;;;;;;5056744;28;39472;-78
2021/08/06 06:35:59;;;;;;;7.60;3.00;;;;;;;;;;5074624;28;38316;-78
2021/08/06 06:38:25;;;;;;;9.18;3.28;;;;;;;;;;5055885;28;39084;-79
2021/08/06 06:40:52;;;;;;;10.50;3.05;;;;;;;;;;5074190;28;37609;-78
2021/08/06 06:43:18;;;;;;;7.50;2.75;;;;;;;;;;5074814;28;39082;-79
2021/08/06 06:45:45;;;;;;;7.80;3.35;;;;;;;;;;5076897;28;38519;-79
2021/08/06 06:48:11;;;;;;;7.60;3.10;;;;;;;;;;5056256;28;39136;-79
2021/08/06 06:50:38;;;;;;;8.07;2.70;;;;;;;;;;5076554;28;38064;-79
2021/08/06 06:53:05;;;;;;;5.18;2.45;;;;;;;;;;5081314;28;39284;-78
2021/08/06 06:55:32;;;;;;;9.85;2.70;;;;;;;;;;5075636;28;36970;-79
2021/08/06 06:57:58;;;;;;;9.82;4.03;;;;;;;;;;5077956;28;38493;-79
2021/08/06 07:00:26;;;;;;;9.18;3.15;;;;;;;;;;5077281;28;37258;-79
2021/08/06 07:02:52;;;;;;;6.97;2.50;;;;;;;;;;5075289;28;38533;-79
2021/08/06 07:05:19;;;;;;;6.38;3.00;;;;;;;;;;5067168;28;39603;-78
2021/08/06 07:07:46;;;;;;;7.65;3.03;;;;;;;;;;5072027;28;37766;-79
2021/08/06 07:10:13;;;;;;;6.32;3.25;;;;;;;;;;5053384;28;37141;-79
2021/08/06 07:12:40;;;;;;;6.03;2.42;;;;;;;;;;5072476;28;39048;-79
2021/08/06 07:15:07;;;;;;;6.85;2.63;;;;;;;;;;5052952;28;38573;-79
2021/08/06 07:17:34;;;;;;;8.65;2.03;;;;;;;;;;5060123;28;38860;-80
2021/08/06 07:20:01;;;;;;;6.95;2.50;;;;;;;;;;5074599;28;36655;-79
2021/08/06 07:22:27;;;;;;;4.82;2.28;;;;;;;;;;5072463;28;39885;-78
2021/08/06 07:24:54;;;;;;;5.63;2.25;;;;;;;;;;5073616;28;40127;-79
2021/08/06 07:27:21;;;;;;;5.60;2.10;;;;;;;;;;5072704;28;36768;-79
2021/08/06 07:29:48;;;;;;;9.02;2.53;;;;;;;;;;5076639;28;35364;-80
2021/08/06 07:32:14;;;;;;;6.38;2.75;;;;;;;;;;5073441;28;37841;-79
2021/08/06 07:34:41;;;;;;;5.65;2.60;;;;;;;;;;5072688;28;37253;-79
2021/08/06 07:37:07;;;;;;;10.30;2.25;;;;;;;;;;5071551;28;36837;-80
2021/08/06 07:39:34;;;;;;;5.93;2.30;;;;;;;;;;5072701;28;35916;-78
2021/08/06 07:42:00;;;;;;;6.80;2.22;;;;;;;;;;5072804;28;41531;-79
2021/08/06 07:44:26;;;;;;;6.65;1.70;;;;;;;;;;5069228;28;40185;-79
2021/08/06 07:46:53;;;;;;;8.20;2.60;;;;;;;;;;5068672;28;40769;-79
2021/08/06 07:49:19;;;;;;;7.68;2.40;;;;;;;;;;5074667;28;36694;-80
2021/08/06 07:51:45;;;;;;;8.23;2.00;;;;;;;;;;5069684;28;38533;-79
2021/08/06 07:54:12;;;;;;;5.82;2.00;;;;;;;;;;5042719;28;37218;-80
2021/08/06 07:56:38;;;;;;;6.63;2.25;;;;;;;;;;5076176;28;38903;-80
2021/08/06 07:59:05;;;;;;;7.63;2.30;;;;;;;;;;5062193;28;37077;-79
2021/08/06 08:01:31;;;;;;;9.50;2.42;;;;;;;;;;5046774;28;40022;-80
2021/08/06 08:03:57;;;;;;;5.85;2.20;;;;;;;;;;5052668;28;38426;-79
2021/08/06 08:06:24;;;;;;;10.00;2.20;;;;;;;;;;5058639;28;38401;-79
2021/08/06 08:08:50;;;;;;;6.30;1.95;;;;;;;;;;5054196;28;36833;-79
2021/08/06 08:11:16;;;;;;;8.30;2.38;;;;;;;;;;5056483;28;39205;-80
2021/08/06 08:13:43;;;;;;;6.03;2.55;;;;;;;;;;5061996;28;39120;-80
2021/08/06 08:16:09;;;;;;;4.57;1.77;;;;;;;;;;5072682;28;39132;-79
2021/08/06 08:18:36;;;;;;;6.90;2.00;;;;;;;;;;5074462;28;37621;-79
2021/08/06 08:21:02;;;;;;;6.72;2.05;;;;;;;;;;5075373;28;37455;-76
2021/08/06 08:23:28;;;;;;;4.05;1.80;;;;;;;;;;5061042;28;39769;-79
2021/08/06 08:25:55;;;;;;;4.88;1.65;;;;;;;;;;5077731;28;37627;-79
2021/08/06 08:28:23;;;;;;;4.78;2.05;;;;;;;;;;5076730;28;37212;-79
2021/08/06 08:30:49;;;;;;;4.63;1.50;;;;;;;;;;5075851;28;38917;-80
2021/08/06 08:33:17;;;;;;;5.25;1.52;;;;;;;;;;5075406;28;38121;-79
2021/08/06 08:35:44;;;;;;;6.70;1.55;;;;;;;;;;5075079;28;37603;-79
2021/08/06 08:38:10;;;;;;;5.95;1.50;;;;;;;;;;5074361;28;36994;-79
2021/08/06 08:40:37;;;;;;;7.00;1.70;;;;;;;;;;5073439;28;39437;-78
2021/08/06 08:43:04;;;;;;;4.75;1.23;;;;;;;;;;5075146;28;38625;-79
2021/08/06 08:45:30;;;;;;;8.48;1.58;;;;;;;;;;5075346;28;38880;-80
2021/08/06 08:47:58;;;;;;;5.28;1.63;;;;;;;;;;5074375;28;37984;-79
2021/08/06 08:50:26;;;;;;;5.07;1.35;;;;;;;;;;5042004;28;37816;-79
2021/08/06 08:52:53;;;;;;;5.85;1.15;;;;;;;;;;5061456;28;38753;-79
2021/08/06 08:55:19;;;;;;;5.03;1.40;;;;;;;;;;5077552;28;39112;-79
2021/08/06 08:57:45;;;;;;;4.97;1.38;;;;;;;;;;5056279;28;38580;-79
2021/08/06 09:00:15;;;;;;;3.55;1.70;;;;;;;;;;5075015;28;40091;-79
2021/08/06 09:02:42;;;;;;;5.57;2.13;;;;;;;;;;5056420;28;38789;-79
2021/08/06 09:05:11;;;;;;;4.25;1.50;;;;;;;;;;5052406;28;40167;-78
2021/08/06 09:07:37;;;;;;;3.83;1.50;;;;;;;;;;5077660;28;37188;-79
2021/08/06 09:10:10;;;;;;;7.95;1.40;;;;;;;;;;5073341;28;39015;-77
2021/08/06 09:13:03;;;;;;;3.20;1.42;;;;;;;;;;5056491;28;47142;-79
2021/08/06 09:15:42;;;;;;;3.53;1.40;;;;;;;;;;5068207;28;50404;-79
2021/08/06 09:18:27;;;;;;;4.90;1.50;;;;;;;;;;5065142;28;37414;-79
2021/08/06 09:21:12;;;;;;;3.15;1.63;;;;;;;;;;5062205;28;39517;-80
2021/08/06 09:23:53;;;;;;;3.35;1.10;;;;;;;;;;5043937;28;46935;-78
2021/08/06 09:26:28;;;;;;;3.92;1.00;;;;;;;;;;5058988;28;39184;-79
2021/08/06 09:29:02;;;;;;;5.20;1.15;;;;;;;;;;5060947;28;37183;-78
2021/08/06 09:31:29;;;;;;;4.93;1.23;;;;;;;;;;5053525;28;40069;-79
2021/08/06 09:34:11;;;;;;;6.57;1.48;;;;;;;;;;5053029;28;39074;-79
2021/08/06 09:36:37;;;;;;;2.63;1.30;;;;;;;;;;5055066;28;47420;-79
2021/08/06 09:39:14;;;;;;;5.65;1.58;;;;;;;;;;5067137;28;35921;-78
2021/08/06 09:41:45;;;;;;;6.70;1.38;;;;;;;;;;5070847;28;40823;-79
2021/08/06 09:44:21;;;;;;;4.65;1.05;;;;;;;;;;5057084;28;39341;-79
2021/08/06 09:46:48;;;;;;;2.63;1.20;;;;;;;;;;5053611;28;38578;-79
2021/08/06 09:49:17;;;;;;;2.88;1.52;;;;;;;;;;5059223;28;37448;-80
2021/08/06 09:51:44;;;;;;;3.33;1.30;;;;;;;;;;5297376;22;39309;-81
2021/08/06 09:54:28;;;;;;;3.33;1.40;;;;;;;;;;5086667;28;39451;-80
2021/08/06 09:57:03;;;;;;;4.18;1.50;;;;;;;;;;5082518;28;38564;-79
2021/08/06 09:59:30;;;;;;;5.45;1.30;;;;;;;;;;5080705;28;48462;-80
2021/08/06 10:02:23;;;;;;;4.15;1.50;;;;;;;;;;5082533;28;37937;-80
2021/08/06 10:05:02;;;;;;;3.55;1.27;;;;;;;;;;5056320;28;49667;-79
2021/08/06 10:07:30;;;;;;;4.85;2.00;;;;;;;;;;5058610;28;48638;-79
2021/08/06 10:09:56;;;;;;;4.30;2.20;;;;;;;;;;5057836;28;37022;-79
2021/08/06 10:12:23;;;;;;;3.38;2.00;;;;;;;;;;5064997;28;39964;-80
2021/08/06 10:14:49;;;;;;;4.22;1.80;;;;;;;;;;5090636;28;38588;-80
2021/08/06 10:17:19;;;;;;;6.13;1.77;;;;;;;;;;5089355;28;38580;-80
2021/08/06 10:19:47;;;;;;;4.35;2.15;;;;;;;;;;5086066;28;37633;-80
2021/08/06 10:22:13;;;;;;;3.08;2.20;;;;;;;;;;5086131;28;40159;-79
2021/08/06 10:24:42;;;;;;;5.38;3.55;;;;;;;;;;5086774;28;37287;-80
2021/08/06 10:27:09;;;;;;;5.72;3.58;;;;;;;;;;5091180;28;40669;-80
2021/08/06 10:29:35;;;;;;;7.07;4.32;;;;;;;;;;5106959;28;36633;-80
2021/08/06 10:32:13;;;;;;;4.47;3.83;;;;;;;;;;5090073;28;38980;-78
2021/08/06 10:35:00;;;;;;;3.85;3.05;;;;;;;;;;5090923;28;39215;-80
2021/08/06 10:37:56;;;;;;;4.38;2.38;;;;;;;;;;5094934;28;39673;-80
2021/08/06 10:40:36;;;;;;;3.83;2.35;;;;;;;;;;5086734;28;37411;-80
2021/08/06 10:43:13;;;;;;;4.70;2.17;;;;;;;;;;5090931;28;40414;-80
2021/08/06 10:45:45;;;;;;;4.78;1.65;;;;;;;;;;5083146;28;37826;-80
2021/08/06 10:48:27;;;;;;;4.35;1.80;;;;;;;;;;5083223;28;38095;-80
2021/08/06 10:51:15;;;;;;;4.22;1.63;;;;;;;;;;5076873;28;36881;-80
2021/08/06 10:53:57;;;;;;;4.05;1.55;;;;;;;;;;5094893;28;47467;-79
2021/08/06 10:56:36;;;;;;;3.28;2.30;;;;;;;;;;5060483;28;38575;-80
2021/08/06 10:59:13;;;;;;;5.38;2.05;;;;;;;;;;5060291;28;37848;-80
2021/08/06 11:01:41;;;;;;;2.72;1.98;;;;;;;;;;5059084;28;49272;-80
2021/08/06 11:04:13;;;;;;;3.17;1.80;;;;;;;;;;5066153;28;37780;-79
2021/08/06 11:06:48;;;;;;;2.13;1.92;;;;;;;;;;5073668;28;37669;-79
2021/08/06 11:09:23;;;;;;;3.67;1.90;;;;;;;;;;5074064;28;36968;-80
2021/08/06 11:12:01;;;;;;;5.07;2.05;;;;;;;;;;5082918;28;37011;-80
2021/08/06 11:14:30;;;;;;;3.58;2.40;;;;;;;;;;5086938;28;49080;-80
2021/08/06 11:19:47;;;;;;;4.03;1.83;;;;;;;;;;5647163;22;20239;-79
2021/08/06 11:32:58;;;;;;;5.15;1.38;;;;;;;;;;5572910;22;20052;-80
2021/08/06 11:35:28;;;;;;;3.03;1.00;;;;;;;;;;5051578;28;39128;-80
2021/08/06 11:38:09;;;;;;;5.80;1.23;;;;;;;;;;5057101;28;38604;-79
2021/08/06 11:40:38;;;;;;;1.30;0.93;;;;;;;;;;5050546;28;48797;-80
2021/08/06 11:43:15;;;;;;;7.35;1.10;;;;;;;;;;5066858;28;36981;-79
2021/08/06 11:45:45;;;;;;;2.83;0.73;;;;;;;;;;5063687;28;40002;-79
2021/08/06 11:48:12;;;;;;;3.03;0.80;;;;;;;;;;5069423;28;39101;-80
2021/08/06 11:50:54;;;;;;;1.48;0.55;;;;;;;;;;5067203;28;38355;-79
2021/08/06 11:53:25;;;;;;;2.78;0.60;;;;;;;;;;5065589;28;36268;-81
2021/08/06 11:55:53;;;;;;;2.22;0.70;;;;;;;;;;5066073;28;39528;-79
2021/08/06 11:58:36;;;;;;;3.00;0.50;;;;;;;;;;5062836;28;37498;-79
2021/08/06 12:01:03;;;;;;;1.25;0.38;;;;;;;;;;5063617;28;38832;-79
2021/08/06 12:03:30;;;;;;;1.60;0.50;;;;;;;;;;5064495;28;37592;-81
2021/08/06 12:06:02;;;;;;;3.15;0.85;;;;;;;;;;5060981;28;37672;-81
2021/08/06 12:08:33;;;;;;;2.35;0.70;;;;;;;;;;5061113;28;48427;-80
2021/08/06 12:11:07;;;;;;;5.07;1.13;;;;;;;;;;5066532;28;38615;-81
2021/08/06 12:13:35;;;;;;;3.10;0.77;;;;;;;;;;5043806;28;47672;-82
2021/08/06 12:16:06;;;;;;;4.03;1.38;;;;;;;;;;5028562;28;37901;-81
2021/08/06 12:18:32;;;;;;;3.42;0.90;;;;;;;;;;5042851;28;48568;-81
2021/08/06 12:21:03;;;;;;;4.35;0.90;;;;;;;;;;5043851;28;40880;-81
2021/08/06 12:23:30;;;;;;;2.10;1.00;;;;;;;;;;5041201;28;47450;-82
2021/08/06 12:26:05;;;;;;;4.90;1.08;;;;;;;;;;5027834;28;37776;-80
2021/08/06 12:28:32;;;;;;;2.47;0.90;;;;;;;;;;5052054;28;48364;-82
2021/08/06 12:31:08;;;;;;;3.72;0.80;;;;;;;;;;5067567;28;38483;-81
2021/08/06 12:33:34;;;;;;;3.50;0.93;;;;;;;;;;5066939;28;47771;-81
2021/08/06 12:36:08;;;;;;;3.83;1.10;;;;;;;;;;5063952;28;40018;-81
2021/08/06 12:38:34;;;;;;;1.50;0.73;;;;;;;;;;5070418;28;48511;-81
2021/08/06 12:41:02;;;;;;;2.15;0.77;;;;;;;;;;5068817;28;37075;-81
2021/08/06 12:43:28;;;;;;;2.28;0.98;;;;;;;;;;5069026;28;47763;-81
2021/08/06 12:46:14;;;;;;;5.32;0.80;;;;;;;;;;5068633;28;38608;-82
2021/08/06 12:48:59;;;;;;;3.40;0.65;;;;;;;;;;5051208;28;47726;-81
2021/08/06 12:51:25;;;;;;;5.43;0.93;;;;;;;;;;5067313;28;37552;-81
2021/08/06 12:53:52;;;;;;;4.65;0.95;;;;;;;;;;5065120;28;36053;-81
2021/08/06 12:56:18;;;;;;;4.80;1.20;;;;;;;;;;5069096;28;37643;-81
2021/08/06 12:58:45;;;;;;;3.55;0.82;;;;;;;;;;5070087;28;39562;-80
2021/08/06 13:01:11;;;;;;;2.85;0.82;;;;;;;;;;5063651;28;38382;-80
2021/08/06 13:03:44;;;;;;;3.92;0.70;;;;;;;;;;5066370;28;35935;-81
2021/08/06 13:06:12;;;;;;;3.95;0.80;;;;;;;;;;5066486;28;38798;-81
2021/08/06 13:08:42;;;;;;;8.45;1.00;;;;;;;;;;5047706;28;37721;-81
2021/08/06 13:11:18;;;;;;;1.88;0.95;;;;;;;;;;5049181;28;38259;-81
2021/08/06 13:13:45;;;;;;;2.95;0.80;;;;;;;;;;5066336;28;37517;-81
2021/08/06 13:16:23;;;;;;;2.42;0.68;;;;;;;;;;5064630;28;40178;-80
2021/08/06 13:18:51;;;;;;;3.67;0.85;;;;;;;;;;5063249;28;38436;-81
2021/08/06 13:21:17;;;;;;;8.43;1.33;;;;;;;;;;5047451;28;37441;-81
2021/08/06 13:23:44;;;;;;;4.03;1.02;;;;;;;;;;5068148;28;37042;-81
2021/08/06 13:26:10;;;;;;;4.00;0.95;;;;;;;;;;5060634;28;39010;-80
2021/08/06 13:28:37;;;;;;;3.22;1.13;;;;;;;;;;5049621;28;38492;-81
2021/08/06 13:31:03;;;;;;;3.45;1.25;;;;;;;;;;5066069;28;38335;-79
2021/08/06 13:33:30;;;;;;;2.03;0.90;;;;;;;;;;5064369;28;37467;-80
2021/08/06 13:35:58;;;;;;;4.75;1.23;;;;;;;;;;5062516;28;39195;-81
2021/08/06 13:38:24;;;;;;;3.70;1.00;;;;;;;;;;5063478;28;38740;-81
2021/08/06 13:40:50;;;;;;;7.35;1.23;;;;;;;;;;5049145;28;36882;-81
2021/08/06 13:43:17;;;;;;;6.43;1.33;;;;;;;;;;5063166;28;36907;-80
2021/08/06 13:45:43;;;;;;;7.10;1.70;;;;;;;;;;5060398;28;39099;-80
2021/08/06 13:48:10;;;;;;;5.05;1.10;;;;;;;;;;5064821;28;38921;-81
2021/08/06 13:50:36;;;;;;;3.95;0.90;;;;;;;;;;5063266;28;38668;-78
2021/08/06 13:53:03;;;;;;;5.10;0.82;;;;;;;;;;5062131;28;37443;-78
2021/08/06 13:55:29;;;;;;;6.82;1.52;;;;;;;;;;5060850;28;39356;-79
2021/08/06 13:57:58;;;;;;;6.72;1.40;;;;;;;;;;5066545;28;38392;-79
2021/08/06 14:00:25;;;;;;;10.27;1.45;;;;;;;;;;5070122;28;38558;-81
2021/08/06 14:02:51;;;;;;;5.07;1.17;;;;;;;;;;5080877;28;37077;-79
2021/08/06 14:05:17;;;;;;;4.63;1.20;;;;;;;;;;5058717;28;37806;-80
2021/08/06 14:07:43;;;;;;;7.13;1.50;;;;;;;;;;5062548;28;38011;-79
2021/08/06 14:10:10;;;;;;;6.95;1.38;;;;;;;;;;5060629;28;38651;-79
2021/08/06 14:12:41;;;;;;;4.50;1.00;;;;;;;;;;5065299;28;37750;-80
2021/08/06 14:15:08;;;;;;;6.07;1.17;;;;;;;;;;5063780;28;37950;-80
2021/08/06 14:17:35;;;;;;;3.97;1.23;;;;;;;;;;5066341;28;38303;-79
2021/08/06 14:20:01;;;;;;;5.93;1.45;;;;;;;;;;5060676;28;37146;-80
2021/08/06 14:22:27;;;;;;;4.75;1.38;;;;;;;;;;5061138;28;38653;-80
2021/08/06 14:24:54;;;;;;;5.03;1.38;;;;;;;;;;5058060;28;36944;-80
2021/08/06 14:27:22;;;;;;;5.07;1.33;;;;;;;;;;5056208;28;37229;-80
2021/08/06 14:29:48;;;;;;;5.95;1.20;;;;;;;;;;5063511;28;39302;-79
2021/08/06 14:32:14;;;;;;;4.65;1.23;;;;;;;;;;5054689;28;37824;-80
2021/08/06 14:34:43;;;;;;;7.47;1.58;;;;;;;;;;5039171;28;39292;-79
2021/08/06 14:37:09;;;;;;;8.35;2.10;;;;;;;;;;5039961;28;39036;-79
2021/08/06 14:39:37;;;;;;;6.80;1.40;;;;;;;;;;5054284;28;38361;-79
2021/08/06 14:42:03;;;;;;;5.35;1.55;;;;;;;;;;5052420;28;35586;-79
2021/08/06 14:44:31;;;;;;;8.73;1.92;;;;;;;;;;5040579;28;20530;-79
2021/08/06 14:47:01;;;;;;;8.43;1.45;;;;;;;;;;5034882;28;38472;-80
2021/08/06 14:49:27;;;;;;;7.15;1.40;;;;;;;;;;5032174;28;49053;-79
2021/08/06 14:51:53;;;;;;;7.93;1.50;;;;;;;;;;5036856;28;37107;-79
2021/08/06 14:54:20;;;;;;;6.13;1.50;;;;;;;;;;5032641;28;38938;-79
2021/08/06 14:56:46;;;;;;;4.63;1.38;;;;;;;;;;5038048;28;39397;-79
2021/08/06 14:59:12;;;;;;;7.05;1.67;;;;;;;;;;5010676;28;36595;-78
2021/08/06 15:01:39;;;;;;;6.53;1.33;;;;;;;;;;5018756;28;36865;-79
2021/08/06 15:04:06;;;;;;;8.15;1.92;;;;;;;;;;5031540;28;38811;-77
2021/08/06 15:06:32;;;;;;;5.70;1.33;;;;;;;;;;5030308;28;39640;-78
2021/08/06 15:08:59;;;;;;;8.85;2.00;;;;;;;;;;5031097;28;36564;-79
2021/08/06 15:11:25;;;;;;;5.43;1.60;;;;;;;;;;5030960;28;37222;-80
2021/08/06 15:13:51;;;;;;;10.32;2.30;;;;;;;;;;5031147;28;38701;-79
2021/08/06 15:16:18;;;;;;;8.00;2.20;;;;;;;;;;5028747;28;39694;-79